createdAt,value
2022-09-05T00:01:27.742Z,58.38
2022-09-05T00:04:24.037Z,58.31
2022-09-05T00:07:32.948Z,59.23
2022-09-05T00:10:16.689Z,59.05
2022-09-05T00:12:45.506Z,58.23
2022-09-05T00:15:21.524Z,59.03
2022-09-05T00:23:19.981Z,58.94
2022-09-05T00:24:25.767Z,58.17
2022-09-05T00:24:29.218Z,58.45
2022-09-05T00:26:50.661Z,58.43
2022-09-05T00:29:36.111Z,59.38
2022-09-05T00:32:31.126Z,59.11
2022-09-05T00:35:04.349Z,59.12
2022-09-05T00:37:34.598Z,59.02
2022-09-05T00:40:17.434Z,58.19
2022-09-05T00:42:48.078Z,57.34
2022-09-05T00:45:19.714Z,59.91
2022-09-05T00:48:05.685Z,59.92
2022-09-05T00:50:37.082Z,59.23
2022-09-05T00:53:07.860Z,59.61
2022-09-05T00:55:57.842Z,59.28
2022-09-05T00:58:38.725Z,59.66
2022-09-05T01:01:10.691Z,60.59
2022-09-05T01:04:12.148Z,59.00
2022-09-05T01:06:45.501Z,59.50
2022-09-05T01:09:18.944Z,59.17
2022-09-05T01:11:46.459Z,59.50
2022-09-05T01:14:37.454Z,59.10
2022-09-05T01:17:23.859Z,59.47
2022-09-05T01:20:19.243Z,59.18
2022-09-05T01:23:07.315Z,58.35
2022-09-05T01:25:55.529Z,57.36
2022-09-05T01:29:15.737Z,57.92
2022-09-05T01:31:11.159Z,59.14
2022-09-05T01:34:01.836Z,59.46
2022-09-05T01:36:47.585Z,59.20
2022-09-05T01:40:15.068Z,59.26
2022-09-05T01:42:37.245Z,59.22
2022-09-05T01:45:07.688Z,59.05
2022-09-05T01:47:40.709Z,59.36
2022-09-05T01:50:27.057Z,59.22
2022-09-05T01:53:09.521Z,59.25
2022-09-05T01:56:04.982Z,60.73
2022-09-05T01:58:40.716Z,59.22
2022-09-05T02:01:31.698Z,60.19
2022-09-05T02:04:09.470Z,59.92
2022-09-05T02:06:46.581Z,60.25
2022-09-05T02:09:32.946Z,58.62
2022-09-05T02:12:16.122Z,58.54
2022-09-05T02:14:44.619Z,58.88
2022-09-05T02:17:49.875Z,60.25
2022-09-05T02:20:23.731Z,59.25
2022-09-05T02:22:57.672Z,60.00
2022-09-05T02:26:02.906Z,58.95
2022-09-05T02:28:36.109Z,59.18
2022-09-05T02:31:20.227Z,59.96
2022-09-05T02:33:52.349Z,60.12
2022-09-05T02:36:38.625Z,58.69
2022-09-05T02:45:01.614Z,59.16
2022-09-05T02:45:19.431Z,58.40
2022-09-05T02:45:25.795Z,59.16
2022-09-05T02:47:56.561Z,60.70
2022-09-05T02:54:31.277Z,59.57
2022-09-05T02:57:38.560Z,59.65
2022-09-05T02:57:43.080Z,60.11
2022-09-05T02:59:18.301Z,59.24
2022-09-05T03:02:24.942Z,60.09
2022-09-05T03:04:53.330Z,60.21
2022-09-05T03:07:52.122Z,59.80
2022-09-05T03:10:28.245Z,60.46
2022-09-05T03:13:12.509Z,59.83
2022-09-05T03:15:55.528Z,59.62
2022-09-05T03:18:31.596Z,59.78
2022-09-05T03:21:09.591Z,59.55
2022-09-05T03:23:37.018Z,60.06
2022-09-05T03:26:23.549Z,60.61
2022-09-05T03:28:59.848Z,59.77
2022-09-05T03:31:33.115Z,59.36
2022-09-05T03:34:00.348Z,58.98
2022-09-05T03:36:31.098Z,59.71
2022-09-05T03:38:59.173Z,59.53
2022-09-05T03:41:42.907Z,59.25
2022-09-05T03:44:23.813Z,59.77
2022-09-05T03:46:50.939Z,59.03
2022-09-05T03:55:45.408Z,59.81
2022-09-05T03:57:11.315Z,59.40
2022-09-05T03:57:14.131Z,60.21
2022-09-05T03:58:55.812Z,60.33
2022-09-05T04:04:24.774Z,59.77
2022-09-05T04:08:08.281Z,59.49
2022-09-05T04:08:18.374Z,60.13
2022-09-05T04:10:26.795Z,60.39
2022-09-05T04:12:58.765Z,59.57
2022-09-05T04:15:41.088Z,59.65
2022-09-05T04:18:17.446Z,59.25
2022-09-05T04:20:56.751Z,59.53
2022-09-05T04:23:26.922Z,58.84
2022-09-05T04:26:11.491Z,59.22
2022-09-05T04:28:59.473Z,58.76
2022-09-05T04:31:26.988Z,59.58
2022-09-05T04:34:04.579Z,59.00
2022-09-05T04:36:35.160Z,59.51
2022-09-05T04:39:17.394Z,59.19
2022-09-05T04:41:50.159Z,60.13
2022-09-05T04:44:17.829Z,59.65
2022-09-05T04:46:49.189Z,59.67
2022-09-05T04:49:20.482Z,59.53
2022-09-05T04:52:00.140Z,60.83
2022-09-05T04:54:30.891Z,59.83
2022-09-05T04:57:18.569Z,59.68
2022-09-05T05:05:36.450Z,60.38
2022-09-05T05:06:10.313Z,59.93
2022-09-05T05:06:13.108Z,59.21
2022-09-05T05:08:40.737Z,59.75
2022-09-05T05:18:00.012Z,59.05
2022-09-05T05:18:06.249Z,58.96
2022-09-05T05:18:11.663Z,58.96
2022-09-05T05:20:42.454Z,59.08
2022-09-05T05:23:08.299Z,58.41
2022-09-05T05:25:47.217Z,57.88
2022-09-05T05:28:32.415Z,59.41
2022-09-05T05:31:08.596Z,58.31
2022-09-05T05:33:36.156Z,57.38
2022-09-05T05:36:07.412Z,57.22
2022-09-05T05:38:36.422Z,57.98
2022-09-05T05:41:12.765Z,57.56
2022-09-05T05:43:46.078Z,57.08
2022-09-05T05:46:34.462Z,57.36
2022-09-05T05:49:08.227Z,55.90
2022-09-05T05:52:01.319Z,56.59
2022-09-05T05:54:50.681Z,57.29
2022-09-05T05:57:19.331Z,57.30
2022-09-05T05:59:56.431Z,57.44
2022-09-05T06:02:46.969Z,57.43
2022-09-05T06:05:56.083Z,56.43
2022-09-05T06:11:02.281Z,56.51
2022-09-05T06:15:00.625Z,57.10
2022-09-05T06:15:02.808Z,56.35
2022-09-05T06:17:33.858Z,56.11
2022-09-05T06:21:12.767Z,56.02
2022-09-05T06:23:16.539Z,56.00
2022-09-05T06:25:57.673Z,55.55
2022-09-05T06:28:33.219Z,55.69
2022-09-05T06:31:29.901Z,55.27
2022-09-05T06:34:04.238Z,54.52
2022-09-05T06:36:32.231Z,54.16
2022-09-05T06:39:02.634Z,53.55
2022-09-05T06:41:30.098Z,53.04
2022-09-05T06:44:15.718Z,52.85
2022-09-05T06:47:05.766Z,53.31
2022-09-05T06:49:51.668Z,53.36
2022-09-05T06:52:32.414Z,53.53
2022-09-05T06:55:18.752Z,53.11
2022-09-05T06:57:55.227Z,51.75
2022-09-05T07:00:25.054Z,50.38
2022-09-05T07:03:00.002Z,49.78
2022-09-05T07:05:44.624Z,49.28
2022-09-05T07:08:35.947Z,47.44
2022-09-05T07:11:16.846Z,48.31
2022-09-05T07:14:27.843Z,47.13
2022-09-05T07:16:56.263Z,46.96
2022-09-05T07:19:29.473Z,45.15
2022-09-05T07:22:45.903Z,44.29
2022-09-05T07:25:08.667Z,44.72
2022-09-05T07:28:25.789Z,43.51
2022-09-05T07:30:33.199Z,46.18
2022-09-05T07:33:00.462Z,44.84
2022-09-05T07:35:29.375Z,45.66
2022-09-05T07:38:13.926Z,42.66
2022-09-05T07:40:41.793Z,42.92
2022-09-05T07:43:18.913Z,41.02
2022-09-05T07:45:56.240Z,39.96
2022-09-05T07:48:34.524Z,41.02
2022-09-05T07:56:48.066Z,41.65
2022-09-05T07:57:06.017Z,39.19
2022-09-05T07:59:41.405Z,38.60
2022-09-05T08:02:09.503Z,38.16
2022-09-05T08:04:39.353Z,35.85
2022-09-05T08:07:49.239Z,36.50
2022-09-05T08:10:09.739Z,35.72
2022-09-05T08:12:48.101Z,36.07
2022-09-05T08:15:27.350Z,36.83
2022-09-05T08:18:34.291Z,36.54
2022-09-05T08:21:06.445Z,34.61
2022-09-05T08:23:33.602Z,35.59
2022-09-05T08:26:13.455Z,36.76
2022-09-05T08:28:44.014Z,36.13
2022-09-05T08:31:12.711Z,36.12
2022-09-05T08:33:39.966Z,35.08
2022-09-05T08:36:26.219Z,33.74
2022-09-05T08:38:54.308Z,34.10
2022-09-05T08:41:50.045Z,35.71
2022-09-05T08:46:46.141Z,33.46
2022-09-05T08:47:25.294Z,37.09
2022-09-05T08:50:01.701Z,38.03
2022-09-05T08:52:38.923Z,34.65
2022-09-05T08:55:25.079Z,36.19
2022-09-05T08:57:58.789Z,36.54
2022-09-05T09:00:27.633Z,31.64
2022-09-05T09:03:12.971Z,35.45
2022-09-05T09:06:12.602Z,32.98
2022-09-05T09:08:53.226Z,33.17
2022-09-05T09:11:39.320Z,33.25
2022-09-05T09:14:30.142Z,34.71
2022-09-05T09:17:16.978Z,34.12
2022-09-05T09:19:53.190Z,34.92
2022-09-05T09:22:37.048Z,33.30
2022-09-05T09:25:15.698Z,34.24
2022-09-05T09:28:50.297Z,38.66
2022-09-05T09:30:37.105Z,34.87
2022-09-05T09:33:04.688Z,33.77
2022-09-05T09:35:52.853Z,34.29
2022-09-05T09:38:36.163Z,33.38
2022-09-05T09:41:18.672Z,34.16
2022-09-05T09:44:05.490Z,35.70
2022-09-05T09:46:39.093Z,33.19
2022-09-05T09:49:22.951Z,32.64
2022-09-05T09:52:20.752Z,33.64
2022-09-05T09:55:00.063Z,32.63
2022-09-05T09:57:36.418Z,32.23
2022-09-05T10:00:05.805Z,33.46
2022-09-05T10:05:18.277Z,33.62
2022-09-05T10:10:45.542Z,34.08
2022-09-05T10:10:54.671Z,33.37
2022-09-05T10:11:50.032Z,35.27
2022-09-05T10:14:33.876Z,33.95
2022-09-05T10:17:27.187Z,36.03
2022-09-05T10:20:12.961Z,34.41
2022-09-05T10:22:44.650Z,35.64
2022-09-05T10:25:33.916Z,35.43
2022-09-05T10:28:11.884Z,31.84
2022-09-05T10:32:16.323Z,34.81
2022-09-05T10:35:15.101Z,34.87
2022-09-05T10:36:24.795Z,33.21
2022-09-05T10:38:59.677Z,34.14
2022-09-05T10:41:39.762Z,32.15
2022-09-05T10:44:07.494Z,32.52
2022-09-05T10:46:50.751Z,33.53
2022-09-05T10:49:22.615Z,31.90
2022-09-05T10:51:54.651Z,32.53
2022-09-05T10:54:43.899Z,32.02
2022-09-05T10:57:20.544Z,31.99
2022-09-05T11:02:20.363Z,31.60
2022-09-05T11:02:57.961Z,30.20
2022-09-05T11:05:26.712Z,33.63
2022-09-05T11:07:59.374Z,31.35
2022-09-05T11:10:45.408Z,35.84
2022-09-05T11:13:27.893Z,35.44
2022-09-05T11:16:13.539Z,36.70
2022-09-05T11:18:54.976Z,33.61
2022-09-05T11:21:27.124Z,34.76
2022-09-05T11:23:57.142Z,33.79
2022-09-05T11:26:30.128Z,31.72
2022-09-05T11:29:00.437Z,31.98
2022-09-05T11:32:00.527Z,33.32
2022-09-05T11:39:45.769Z,32.16
2022-09-05T11:40:08.637Z,30.35
2022-09-05T11:40:28.929Z,33.83
2022-09-05T11:43:19.137Z,33.64
2022-09-05T11:45:58.443Z,34.26
2022-09-05T11:48:39.728Z,35.12
2022-09-05T11:51:34.144Z,35.93
2022-09-05T11:54:13.906Z,36.77
2022-09-05T11:57:00.786Z,35.25
2022-09-05T12:00:28.162Z,35.95
2022-09-05T12:02:49.632Z,36.23
2022-09-05T12:05:50.724Z,33.67
2022-09-05T12:08:56.228Z,34.34
2022-09-05T12:11:26.151Z,33.87
2022-09-05T12:14:20.967Z,33.92
2022-09-05T12:17:10.188Z,35.12
2022-09-05T12:19:52.193Z,35.30
2022-09-05T12:22:36.235Z,36.31
2022-09-05T12:25:25.840Z,37.57
2022-09-05T12:29:26.533Z,37.10
2022-09-05T12:32:36.716Z,37.82
2022-09-05T12:36:12.759Z,37.19
2022-09-05T12:40:44.684Z,39.20
2022-09-05T12:41:32.787Z,38.65
2022-09-05T12:42:40.165Z,39.60
2022-09-05T12:45:32.469Z,38.24
2022-09-05T12:48:08.523Z,35.68
2022-09-05T12:50:54.958Z,37.48
2022-09-05T12:53:22.939Z,35.42
2022-09-05T12:56:20.514Z,34.94
2022-09-05T13:03:04.204Z,33.96
2022-09-05T13:03:06.577Z,33.82
2022-09-05T13:04:31.113Z,34.21
2022-09-05T13:07:06.390Z,34.36
2022-09-05T13:11:05.089Z,36.25
2022-09-05T13:14:58.749Z,35.23
2022-09-05T13:15:39.434Z,34.71
2022-09-05T13:18:11.651Z,33.89
2022-09-05T13:20:45.734Z,33.37
2022-09-05T13:23:12.859Z,32.67
2022-09-05T13:25:41.456Z,33.70
2022-09-05T13:28:09.749Z,32.33
2022-09-05T13:34:14.785Z,32.69
2022-09-05T13:37:59.607Z,33.19
2022-09-05T13:38:15.466Z,33.00
2022-09-05T13:39:23.632Z,32.86
2022-09-05T13:41:52.120Z,34.40
2022-09-05T13:44:26.431Z,33.86
2022-09-05T13:46:58.481Z,32.63
2022-09-05T13:49:31.323Z,32.94
2022-09-05T13:52:32.035Z,33.11
2022-09-05T13:55:02.309Z,31.29
2022-09-05T13:57:34.967Z,32.45
2022-09-05T14:00:27.146Z,31.97
2022-09-05T14:05:59.101Z,34.41
2022-09-05T14:08:45.568Z,34.51
2022-09-05T14:11:19.506Z,34.84
2022-09-05T14:13:51.079Z,34.31
2022-09-05T14:16:20.482Z,35.83
2022-09-05T14:19:06.830Z,34.97
2022-09-05T14:21:36.857Z,34.30
2022-09-05T14:24:11.212Z,34.89
2022-09-05T14:26:40.666Z,34.18
2022-09-05T14:29:17.228Z,34.98
2022-09-05T14:37:43.232Z,33.62
2022-09-05T14:37:44.898Z,34.51
2022-09-05T14:38:10.035Z,33.06
2022-09-05T14:40:55.267Z,33.39
2022-09-05T14:43:47.510Z,34.80
2022-09-05T14:46:30.517Z,33.87
2022-09-05T14:49:10.859Z,33.99
2022-09-05T14:51:39.545Z,34.07
2022-09-05T14:54:11.823Z,34.48
2022-09-05T15:00:18.705Z,32.65
2022-09-05T15:02:50.753Z,33.25
2022-09-05T15:02:54.383Z,32.53
2022-09-05T15:05:28.368Z,33.83
2022-09-05T15:08:50.055Z,32.14
2022-09-05T15:12:20.125Z,32.66
2022-09-05T15:13:51.477Z,31.69
2022-09-05T15:16:19.463Z,32.17
2022-09-05T15:18:46.978Z,32.58
2022-09-05T15:21:33.678Z,32.23
2022-09-05T15:24:19.176Z,32.17
2022-09-05T15:27:06.295Z,32.86
2022-09-05T15:29:34.508Z,34.06
2022-09-05T15:32:12.803Z,33.75
2022-09-05T15:34:40.792Z,33.61
2022-09-05T15:37:25.690Z,33.02
2022-09-05T15:40:02.163Z,33.69
2022-09-05T15:42:30.835Z,35.02
2022-09-05T15:45:09.653Z,33.77
2022-09-05T15:47:38.855Z,33.48
2022-09-05T15:50:22.174Z,32.94
2022-09-05T15:52:52.719Z,33.30
2022-09-05T15:55:24.618Z,33.56
2022-09-05T15:57:58.215Z,33.15
2022-09-05T16:00:51.309Z,33.14
2022-09-05T16:04:47.808Z,33.25
2022-09-05T16:10:30.709Z,33.55
2022-09-05T16:10:49.484Z,34.50
2022-09-05T16:15:17.843Z,33.60
2022-09-05T16:23:18.081Z,34.13
2022-09-05T16:23:32.906Z,34.88
2022-09-05T16:23:40.436Z,34.39
2022-09-05T16:26:24.852Z,35.11
2022-09-05T16:29:00.201Z,36.43
2022-09-05T16:31:30.739Z,36.70
2022-09-05T16:33:57.981Z,36.28
2022-09-05T16:36:29.743Z,36.26
2022-09-05T16:38:59.423Z,36.42
2022-09-05T16:41:45.216Z,36.76
2022-09-05T16:44:24.977Z,36.76
2022-09-05T16:47:07.299Z,37.42
2022-09-05T16:49:43.040Z,38.55
2022-09-05T16:52:13.498Z,39.75
2022-09-05T16:54:47.886Z,40.85
2022-09-05T16:57:15.015Z,41.64
2022-09-05T16:59:43.841Z,41.27
2022-09-05T17:02:12.376Z,41.93
2022-09-05T17:05:03.228Z,41.67
2022-09-05T17:07:36.124Z,40.96
2022-09-05T17:10:11.410Z,41.74
2022-09-05T17:12:38.892Z,41.59
2022-09-05T17:15:29.565Z,43.07
2022-09-05T17:18:21.938Z,42.53
2022-09-05T17:20:47.370Z,42.36
2022-09-05T17:29:17.570Z,43.70
2022-09-05T17:29:26.024Z,45.46
2022-09-05T17:29:26.613Z,44.46
2022-09-05T17:32:01.791Z,46.12
2022-09-05T17:34:41.927Z,47.05
2022-09-05T17:37:21.722Z,46.87
2022-09-05T17:39:49.185Z,46.61
2022-09-05T17:42:20.128Z,47.23
2022-09-05T17:44:48.616Z,47.29
2022-09-05T17:47:24.313Z,47.74
2022-09-05T17:50:10.097Z,48.03
2022-09-05T17:53:26.291Z,47.99
2022-09-05T17:55:55.018Z,48.39
2022-09-05T17:58:39.921Z,48.89
2022-09-05T18:01:17.067Z,49.01
2022-09-05T18:03:45.899Z,49.44
2022-09-05T18:06:16.279Z,49.34
2022-09-05T18:08:46.451Z,49.18
2022-09-05T18:11:25.320Z,49.09
2022-09-05T18:14:02.042Z,48.78
2022-09-05T18:17:36.672Z,48.50
2022-09-05T18:19:45.885Z,48.92
2022-09-05T18:22:25.295Z,49.22
2022-09-05T18:25:27.775Z,50.48
2022-09-05T18:28:04.979Z,49.07
2022-09-05T18:33:53.272Z,49.66
2022-09-05T18:35:57.745Z,49.57
2022-09-05T18:38:50.315Z,48.81
2022-09-05T18:41:19.168Z,49.32
2022-09-05T18:44:12.024Z,49.52
2022-09-05T18:46:42.656Z,49.34
2022-09-05T18:50:21.632Z,49.56
2022-09-05T18:52:22.108Z,50.28
2022-09-05T18:56:09.626Z,50.63
2022-09-05T18:57:57.828Z,50.62
2022-09-05T19:00:46.847Z,51.99
2022-09-05T19:03:19.764Z,51.81
2022-09-05T19:05:59.236Z,51.87
2022-09-05T19:08:48.941Z,50.66
2022-09-05T19:11:28.048Z,51.05
2022-09-05T19:14:14.262Z,50.95
2022-09-05T19:16:48.166Z,50.25
2022-09-05T19:19:17.264Z,50.63
2022-09-05T19:22:16.209Z,51.31
2022-09-05T19:24:46.300Z,52.39
2022-09-05T19:28:57.086Z,51.59
2022-09-05T19:36:50.326Z,52.17
2022-09-05T19:36:51.696Z,51.06
2022-09-05T19:37:09.041Z,51.16
2022-09-05T19:41:27.066Z,52.28
2022-09-05T19:47:27.182Z,52.05
2022-09-05T19:47:45.332Z,51.58
2022-09-05T19:48:04.030Z,52.22
2022-09-05T19:50:21.633Z,52.33
2022-09-05T19:52:53.536Z,51.26
2022-09-05T19:55:22.906Z,52.48
2022-09-05T19:58:20.153Z,53.58
2022-09-05T20:01:00.841Z,53.50
2022-09-05T20:03:38.816Z,54.13
2022-09-05T20:06:30.053Z,52.93
2022-09-05T20:09:17.337Z,53.75
2022-09-05T20:11:51.623Z,53.76
2022-09-05T20:14:30.623Z,53.17
2022-09-05T20:17:16.793Z,53.80
2022-09-05T20:19:44.470Z,53.33
2022-09-05T20:22:47.013Z,53.33
2022-09-05T20:25:03.171Z,52.78
2022-09-05T20:27:30.851Z,53.01
2022-09-05T20:30:02.634Z,53.17
2022-09-05T20:32:39.327Z,53.23
2022-09-05T20:40:17.916Z,54.12
2022-09-05T20:43:09.709Z,53.70
2022-09-05T20:43:17.034Z,52.45
2022-09-05T20:44:05.749Z,52.30
2022-09-05T20:50:35.695Z,52.59
2022-09-05T20:54:06.802Z,52.59
2022-09-05T20:54:28.652Z,52.60
2022-09-05T20:54:56.481Z,53.12
2022-09-05T20:57:30.321Z,53.44
2022-09-05T21:00:06.037Z,53.83
2022-09-05T21:02:33.551Z,54.60
2022-09-05T21:05:20.109Z,53.66
2022-09-05T21:07:51.212Z,53.98
2022-09-05T21:10:36.829Z,53.67
2022-09-05T21:13:23.443Z,52.81
2022-09-05T21:15:52.793Z,52.08
2022-09-05T21:18:22.607Z,52.57
2022-09-05T21:20:56.953Z,53.24
2022-09-05T21:23:28.134Z,54.47
2022-09-05T21:25:56.155Z,54.07
2022-09-05T21:28:37.318Z,53.30
2022-09-05T21:31:10.564Z,53.02
2022-09-05T21:33:45.775Z,52.96
2022-09-05T21:36:14.297Z,53.16
2022-09-05T21:38:41.881Z,53.26
2022-09-05T21:41:09.167Z,53.78
2022-09-05T21:47:38.331Z,55.34
2022-09-05T21:47:42.443Z,54.83
2022-09-05T21:49:15.336Z,54.39
2022-09-05T21:51:48.215Z,54.54
2022-09-05T21:57:40.437Z,55.07
2022-09-05T21:59:29.034Z,54.48
2022-09-05T21:59:57.857Z,54.75
2022-09-05T22:02:32.884Z,54.76
2022-09-05T22:05:03.058Z,55.73
2022-09-05T22:07:31.654Z,55.65
2022-09-05T22:10:03.376Z,54.94
2022-09-05T22:12:38.733Z,55.70
2022-09-05T22:15:26.685Z,55.41
2022-09-05T22:18:11.755Z,55.50
2022-09-05T22:20:43.663Z,55.48
2022-09-05T22:23:11.321Z,55.07
2022-09-05T22:25:38.549Z,55.12
2022-09-05T22:28:27.369Z,55.81
2022-09-05T22:31:07.294Z,56.38
2022-09-05T22:33:36.086Z,55.82
2022-09-05T22:36:03.819Z,56.29
2022-09-05T22:38:31.051Z,55.46
2022-09-05T22:40:58.826Z,56.20
2022-09-05T22:43:26.086Z,55.83
2022-09-05T22:45:56.522Z,55.91
2022-09-05T22:48:24.117Z,55.94
2022-09-05T22:50:52.220Z,56.12
2022-09-05T22:53:19.453Z,55.79
2022-09-05T22:55:47.065Z,55.52
2022-09-05T22:58:14.718Z,56.39
2022-09-05T23:00:42.548Z,56.32
2022-09-05T23:03:10.073Z,55.50
2022-09-05T23:05:37.230Z,55.21
2022-09-05T23:08:04.803Z,54.67
2022-09-05T23:10:32.392Z,54.97
2022-09-05T23:13:02.728Z,55.89
2022-09-05T23:15:29.948Z,56.34
2022-09-05T23:17:58.646Z,56.03
2022-09-05T23:20:27.003Z,55.47
2022-09-05T23:22:57.519Z,56.13
2022-09-05T23:25:25.085Z,55.16
2022-09-05T23:27:52.311Z,55.88
2022-09-05T23:30:19.581Z,55.76
2022-09-05T23:32:47.747Z,55.38
2022-09-05T23:35:15.202Z,56.53
2022-09-05T23:37:45.897Z,55.81
2022-09-05T23:40:14.312Z,56.32
2022-09-05T23:42:41.527Z,56.10
2022-09-05T23:45:09.255Z,56.26
2022-09-05T23:47:36.977Z,56.01
2022-09-05T23:50:04.662Z,56.98
2022-09-05T23:52:31.894Z,56.43
2022-09-05T23:54:59.779Z,55.91
2022-09-05T23:57:27.116Z,55.97
2022-09-05T23:59:54.418Z,55.88
